Time;durP1;ratioP1;P1;durP2;ratioP2;P2;SDS_P1;SDS_P2;PMS_P1;PMS_P2;Temp;Humidity;BMP_temperature;BMP_pressure;BME280_temperature;BME280_humidity;BME280_pressure;Samples;Min_cycle;Max_cycle;Signal;HPM_P1;HPM_P2
2022/08/08 00:00:06;;;;;;;5.25;4.85;;;;;;;22.52;61.78;94526.19;2617145;47;20152;-79
2022/08/08 00:02:43;;;;;;;5.00;4.60;;;;;;;22.47;61.48;94498.13;2617297;46;20160;-78
2022/08/08 00:05:21;;;;;;;4.75;4.35;;;;;;;22.77;61.26;94509.22;2617239;47;20187;-81
2022/08/08 00:07:58;;;;;;;4.65;4.25;;;;;;;22.39;60.99;94473.00;2617187;47;20149;-81
2022/08/08 00:10:33;;;;;;;4.47;4.18;;;;;;;23.31;60.05;94555.94;2617520;39;20672;-78
2022/08/08 00:13:15;;;;;;;4.57;4.28;;;;;;;23.26;60.16;94558.19;2617195;54;20174;-79
2022/08/08 00:15:50;;;;;;;3.80;3.50;;;;;;;23.61;59.01;94569.84;2617067;47;20161;-81
2022/08/08 00:18:23;;;;;;;4.95;4.55;;;;;;;23.82;57.73;94546.31;2617016;46;20164;-81
2022/08/08 00:20:56;;;;;;;3.67;3.47;;;;;;;24.03;56.97;94556.72;2617091;46;20148;-78
2022/08/08 00:23:32;;;;;;;3.75;3.42;;;;;;;23.88;57.59;94549.81;2617077;54;20228;-78
2022/08/08 00:26:04;;;;;;;4.43;4.03;;;;;;;23.60;57.67;94548.19;2617002;54;20152;-82
2022/08/08 00:28:45;;;;;;;4.65;4.25;;;;;;;22.82;60.19;94571.22;2617042;54;20161;-81
2022/08/08 00:31:20;;;;;;;4.50;4.10;;;;;;;22.56;61.85;94571.56;2616757;47;20663;-79
2022/08/08 00:36:50;;;;;;;5.05;4.57;;;;;;;22.47;61.23;94547.91;2617244;47;20153;-82
2022/08/08 00:39:24;;;;;;;4.60;3.47;;;;;;;22.86;60.36;94544.44;2617902;47;20194;-82
2022/08/08 00:42:23;;;;;;;3.83;3.53;;;;;;;23.06;59.42;94561.44;2618038;54;20290;-82
2022/08/08 00:45:33;;;;;;;4.68;4.28;;;;;;;23.00;59.54;94541.31;2617684;47;20232;-83
2022/08/08 00:48:25;;;;;;;3.95;3.65;;;;;;;23.18;58.45;94541.00;2618208;39;20687;-82
2022/08/08 00:51:25;;;;;;;4.57;4.18;;;;;;;22.84;59.57;94553.13;2617920;47;20236;-82
2022/08/08 00:54:21;;;;;;;4.50;4.10;;;;;;;22.71;60.42;94575.66;2617889;54;20156;-82
2022/08/08 00:57:28;;;;;;;4.40;3.50;;;;;;;21.82;63.05;94554.53;2617138;47;20153;-82
2022/08/08 01:00:10;;;;;;;5.53;4.38;;;;;;;21.62;64.04;94552.59;2617488;54;20160;-79
2022/08/08 01:03:11;;;;;;;4.75;4.15;;;;;;;21.08;65.91;94567.53;2617286;47;20163;-79
2022/08/08 01:06:18;;;;;;;4.53;4.13;;;;;;;20.68;67.13;94562.84;2617721;39;20389;-82
2022/08/08 01:09:16;;;;;;;3.30;3.05;;;;;;;20.10;67.54;94495.63;2616536;47;20252;-82
2022/08/08 01:12:15;;;;;;;4.60;4.20;;;;;;;20.08;68.11;94515.78;2617722;54;20149;-79
2022/08/08 01:15:22;;;;;;;7.70;4.63;;;;;;;20.44;68.11;94555.81;2617714;54;20153;-79
2022/08/08 01:18:27;;;;;;;4.72;4.20;;;;;;;20.50;67.31;94547.13;2617706;47;20244;-82
2022/08/08 01:21:23;;;;;;;5.22;4.63;;;;;;;19.92;67.53;94530.25;2616530;47;20165;-79
2022/08/08 01:24:21;;;;;;;4.05;3.75;;;;;;;19.52;69.32;94494.53;2617648;47;20180;-79
2022/08/08 01:27:18;;;;;;;4.22;3.92;;;;;;;19.84;69.78;94551.81;2617642;54;20152;-81
2022/08/08 01:30:15;;;;;;;4.60;4.20;;;;;;;19.76;70.39;94563.38;2617625;47;20148;-82
2022/08/08 01:33:10;;;;;;;4.75;4.22;;;;;;;19.83;70.68;94587.75;2617978;39;20542;-82
2022/08/08 01:36:14;;;;;;;3.85;3.55;;;;;;;19.98;70.38;94591.28;2616719;47;20153;-82
2022/08/08 01:39:07;;;;;;;3.35;3.15;;;;;;;19.82;69.14;94546.06;2617451;54;20153;-82
2022/08/08 01:41:48;;;;;;;3.42;3.20;;;;;;;19.81;68.03;94527.44;2618320;54;20636;-82
2022/08/08 01:44:33;;;;;;;4.82;4.45;;;;;;;20.22;68.13;94553.06;2618309;47;20157;-82
2022/08/08 01:47:15;;;;;;;3.83;3.53;;;;;;;20.75;67.31;94605.25;2618388;47;20161;-82
2022/08/08 01:50:02;;;;;;;4.93;4.13;;;;;;;20.75;66.83;94587.97;2618479;39;20540;-82
2022/08/08 01:52:39;;;;;;;4.22;3.90;;;;;;;20.51;67.45;94588.84;2618210;47;20168;-82
2022/08/08 01:55:19;;;;;;;5.35;4.85;;;;;;;20.08;70.21;94588.38;2618025;54;20137;-82
2022/08/08 01:57:59;;;;;;;4.25;3.95;;;;;;;19.58;72.20;94551.94;2618134;54;20263;-82
2022/08/08 02:00:36;;;;;;;5.07;4.68;;;;;;;20.01;71.24;94580.50;2617973;54;20434;-82
2022/08/08 02:03:25;;;;;;;4.55;4.15;;;;;;;20.10;69.80;94562.47;2618108;47;20156;-83
2022/08/08 02:06:01;;;;;;;5.00;4.55;;;;;;;19.68;69.55;94531.09;2618285;54;20190;-82
2022/08/08 02:08:44;;;;;;;4.93;4.50;;;;;;;19.11;71.91;94539.84;2618027;54;20164;-82
2022/08/08 02:11:26;;;;;;;5.63;4.20;;;;;;;19.68;72.58;94586.38;2618241;47;20335;-79
2022/08/08 02:13:59;;;;;;;4.32;3.97;;;;;;;19.98;69.89;94591.28;2618235;54;20157;-79
2022/08/08 02:16:36;;;;;;;4.10;3.80;;;;;;;19.69;70.91;94593.53;2618324;54;20774;-82
2022/08/08 02:19:14;;;;;;;4.25;3.85;;;;;;;20.18;70.10;94573.22;2618254;47;20156;-82
2022/08/08 02:24:36;;;;;;;5.38;4.53;;;;;;;21.11;64.74;94549.50;2618404;54;20141;-81
2022/08/08 02:27:15;;;;;;;5.22;3.95;;;;;;;20.48;66.89;94569.47;2618005;54;20140;-82
2022/08/08 02:30:03;;;;;;;4.88;3.63;;;;;;;21.43;65.48;94599.66;2618486;54;20347;-82
2022/08/08 02:32:50;;;;;;;3.75;3.45;;;;;;;21.98;62.55;94574.50;2618540;47;20236;-82
2022/08/08 02:35:31;;;;;;;3.75;3.38;;;;;;;22.35;61.54;94600.00;2618401;54;20172;-82
2022/08/08 02:38:41;;;;;;;3.42;3.22;;;;;;;21.09;62.83;94534.41;2618364;47;20149;-82
2022/08/08 02:41:40;;;;;;;5.07;3.88;;;;;;;21.33;63.35;94565.88;2617967;47;20195;-82
2022/08/08 02:44:41;;;;;;;9.68;3.85;;;;;;;22.28;61.60;94598.66;2618106;47;20149;-82
2022/08/08 02:47:50;;;;;;;3.58;3.33;;;;;;;22.65;60.51;94604.66;2618167;47;20148;-82
2022/08/08 02:50:49;;;;;;;3.38;3.10;;;;;;;22.04;59.93;94613.41;2618403;47;20662;-82
2022/08/08 02:53:44;;;;;;;4.95;3.13;;;;;;;21.92;62.51;94614.94;2618310;54;20244;-82
2022/08/08 02:56:47;;;;;;;3.58;3.28;;;;;;;22.66;60.05;94609.69;2617363;47;20163;-79
2022/08/08 02:59:56;;;;;;;3.22;3.03;;;;;;;22.33;58.98;94586.31;2617878;47;20145;-79
2022/08/08 03:02:58;;;;;;;3.67;3.38;;;;;;;22.47;60.16;94611.38;2618110;54;20157;-82
2022/08/08 03:06:11;;;;;;;3.40;3.10;;;;;;;22.18;60.16;94607.44;2617907;47;20174;-82
2022/08/08 03:09:22;;;;;;;3.05;2.83;;;;;;;21.25;62.52;94601.25;2617953;47;20156;-83
2022/08/08 03:12:29;;;;;;;4.00;3.70;;;;;;;19.20;70.59;94607.28;2618170;47;20164;-83
2022/08/08 03:15:14;;;;;;;4.60;4.20;;;;;;;18.33;74.15;94547.72;2617987;46;20160;-79
2022/08/08 03:17:51;;;;;;;4.82;4.45;;;;;;;19.51;72.34;94614.44;2617953;47;20148;-79
2022/08/08 03:20:19;;;;;;;4.35;3.78;;;;;;;20.03;69.24;94617.84;2618045;54;20180;-79
2022/08/08 03:22:53;;;;;;;3.92;3.50;;;;;;;19.54;68.37;94549.09;2617909;47;20161;-79
2022/08/08 03:25:24;;;;;;;5.97;4.13;;;;;;;19.37;71.92;94625.94;2617837;47;20157;-82
2022/08/08 03:27:57;;;;;;;4.13;3.83;;;;;;;19.37;71.43;94582.84;2618213;39;20246;-82
2022/08/08 03:30:27;;;;;;;4.13;3.83;;;;;;;19.39;70.71;94582.16;2617945;47;20168;-79
2022/08/08 03:35:41;;;;;;;4.03;3.67;;;;;;;20.08;66.86;94553.16;2617809;47;20145;-82
2022/08/08 03:38:13;;;;;;;4.32;3.83;;;;;;;20.01;67.97;94632.22;2618090;54;20155;-82
2022/08/08 03:40:42;;;;;;;3.80;3.50;;;;;;;20.41;68.53;94625.59;2618030;54;20647;-82
2022/08/08 03:43:12;;;;;;;3.47;3.17;;;;;;;21.30;64.18;94607.69;2617850;51;20156;-82
2022/08/08 03:45:40;;;;;;;3.92;3.35;;;;;;;21.12;62.86;94633.75;2617805;47;20148;-82
2022/08/08 03:48:11;;;;;;;4.28;3.97;;;;;;;19.22;70.93;94620.94;2617929;47;20191;-81
2022/08/08 03:50:47;;;;;;;3.75;3.53;;;;;;;19.44;72.23;94643.88;2618281;46;20172;-82
2022/08/08 03:53:20;;;;;;;4.10;3.80;;;;;;;19.57;70.89;94592.88;2617837;54;20144;-81
2022/08/08 03:55:52;;;;;;;6.80;4.35;;;;;;;19.47;71.48;94645.28;2618107;54;20160;-78
2022/08/08 03:58:22;;;;;;;4.15;3.75;;;;;;;19.66;70.75;94643.84;2617912;47;20161;-79
2022/08/08 04:00:54;;;;;;;4.68;4.38;;;;;;;19.96;70.44;94643.03;2618091;47;20248;-82
2022/08/08 04:03:24;;;;;;;5.53;3.70;;;;;;;20.42;68.70;94645.00;2617782;47;20141;-81
2022/08/08 04:05:52;;;;;;;4.30;3.67;;;;;;;21.04;64.94;94619.41;2617860;47;20161;-78
2022/08/08 04:08:26;;;;;;;4.70;3.95;;;;;;;21.64;62.98;94612.38;2617795;46;20157;-78
2022/08/08 04:10:55;;;;;;;4.72;3.80;;;;;;;21.07;64.92;94641.69;2618130;39;20559;-82
2022/08/08 04:13:24;;;;;;;4.50;4.05;;;;;;;20.60;67.49;94646.34;2618639;54;20149;-81
2022/08/08 04:15:53;;;;;;;5.85;5.35;;;;;;;20.36;67.03;94578.91;2618675;47;20152;-81
2022/08/08 04:18:21;;;;;;;5.45;4.88;;;;;;;20.77;67.05;94654.16;2618079;47;20157;-82
2022/08/08 04:20:50;;;;;;;6.07;5.47;;;;;;;20.93;66.52;94651.16;2617709;47;20392;-81
2022/08/08 04:23:19;;;;;;;5.45;4.95;;;;;;;20.82;65.98;94597.25;2617766;47;20152;-81
2022/08/08 04:25:50;;;;;;;5.63;4.40;;;;;;;21.06;67.37;94651.78;2619458;39;20564;-82
2022/08/08 04:28:19;;;;;;;4.68;4.28;;;;;;;20.40;67.98;94612.66;2618215;39;20536;-82
2022/08/08 04:30:48;;;;;;;5.30;4.90;;;;;;;21.18;65.53;94643.03;2617664;46;20183;-82
2022/08/08 04:33:17;;;;;;;5.93;5.38;;;;;;;21.67;65.66;94651.25;2617910;47;20144;-82
2022/08/08 04:35:46;;;;;;;6.18;5.13;;;;;;;21.54;64.94;94621.84;2617718;47;20149;-79
2022/08/08 04:38:14;;;;;;;5.70;4.95;;;;;;;22.16;63.39;94659.41;2617660;54;20205;-78
2022/08/08 04:40:43;;;;;;;12.13;5.60;;;;;;;21.97;63.65;94630.03;2617645;47;20196;-79
2022/08/08 04:43:15;;;;;;;4.32;3.95;;;;;;;21.65;64.96;94622.47;2617890;47;20179;-79
2022/08/08 04:45:44;;;;;;;6.05;5.53;;;;;;;21.90;65.12;94666.16;2618048;47;20149;-82
2022/08/08 04:48:12;;;;;;;4.72;4.32;;;;;;;21.61;65.92;94642.66;2617393;54;20697;-82
2022/08/08 04:50:41;;;;;;;6.78;5.78;;;;;;;21.53;65.64;94629.06;2618238;47;20231;-81
2022/08/08 04:53:10;;;;;;;4.93;4.55;;;;;;;21.46;65.51;94592.38;2618136;47;20248;-81
2022/08/08 04:55:39;;;;;;;5.07;4.68;;;;;;;22.09;64.87;94672.47;2617944;46;20233;-82
2022/08/08 04:58:12;;;;;;;5.45;4.90;;;;;;;21.94;66.12;94675.47;2617494;54;20142;-81
2022/08/08 05:00:44;;;;;;;5.40;4.90;;;;;;;21.76;65.95;94638.19;2618035;54;20137;-82
2022/08/08 05:03:12;;;;;;;5.63;5.13;;;;;;;22.21;65.01;94641.31;2617825;47;20770;-82
2022/08/08 05:05:41;;;;;;;5.50;4.93;;;;;;;22.02;64.22;94585.28;2617734;54;20148;-82
2022/08/08 05:08:12;;;;;;;5.32;4.90;;;;;;;22.88;63.71;94674.34;2617658;47;20172;-82
2022/08/08 05:10:41;;;;;;;5.70;5.20;;;;;;;23.19;63.13;94677.50;2617667;54;20164;-78
2022/08/08 05:13:09;;;;;;;5.25;4.80;;;;;;;23.27;59.99;94671.59;2617743;47;20195;-78
2022/08/08 05:15:38;;;;;;;4.57;4.20;;;;;;;23.42;58.61;94640.28;2617973;47;20168;-82
2022/08/08 05:18:09;;;;;;;8.18;5.20;;;;;;;24.02;59.44;94679.69;2617751;47;20156;-83
2022/08/08 05:20:38;;;;;;;5.35;4.88;;;;;;;24.02;59.36;94665.22;2617772;47;20179;-79
2022/08/08 05:23:07;;;;;;;5.60;5.07;;;;;;;23.62;59.61;94625.50;2618007;39;20521;-79
2022/08/08 05:25:36;;;;;;;7.15;5.95;;;;;;;23.69;60.20;94673.06;2617804;47;20141;-82
2022/08/08 05:28:05;;;;;;;7.32;4.82;;;;;;;23.91;59.58;94692.22;2617890;54;20141;-83
2022/08/08 05:30:34;;;;;;;6.35;4.53;;;;;;;23.93;57.79;94637.91;2617473;54;20152;-84
2022/08/08 05:33:04;;;;;;;4.97;4.57;;;;;;;24.56;55.12;94694.59;2617617;52;20145;-85
2022/08/08 05:35:37;;;;;;;8.82;4.97;;;;;;;24.46;56.93;94677.44;2617456;54;20164;-83
2022/08/08 05:38:09;;;;;;;5.88;5.38;;;;;;;24.35;56.96;94679.78;2618394;54;20157;-85
2022/08/08 05:40:39;;;;;;;9.50;5.18;;;;;;;23.99;57.99;94666.72;2617831;47;20196;-82
2022/08/08 05:43:10;;;;;;;5.25;4.75;;;;;;;23.53;59.72;94691.41;2617988;47;20149;-83
2022/08/08 05:45:39;;;;;;;4.68;4.28;;;;;;;23.67;59.30;94688.28;2617878;54;20152;-80
2022/08/08 05:48:09;;;;;;;5.15;4.50;;;;;;;23.74;58.07;94657.81;2617593;54;20161;-82
2022/08/08 05:50:41;;;;;;;5.38;4.93;;;;;;;23.80;56.63;94612.88;2617588;47;20198;-81
2022/08/08 05:53:10;;;;;;;5.18;4.32;;;;;;;24.46;56.22;94668.03;2617593;54;20172;-83
2022/08/08 05:55:42;;;;;;;5.43;4.93;;;;;;;24.88;55.17;94690.25;2617888;54;20164;-82
2022/08/08 05:58:14;;;;;;;6.45;4.95;;;;;;;24.96;54.88;94666.22;2616607;54;20157;-85
2022/08/08 06:00:49;;;;;;;4.20;3.90;;;;;;;25.35;54.74;94701.53;2616529;54;20214;-81
2022/08/08 06:03:20;;;;;;;5.30;4.88;;;;;;;25.79;53.36;94699.03;2616116;46;20151;-79
2022/08/08 06:05:53;;;;;;;4.57;4.18;;;;;;;25.78;51.44;94697.63;2617699;47;20141;-81
2022/08/08 06:08:28;;;;;;;4.55;4.25;;;;;;;25.54;52.72;94677.91;2617456;47;20232;-81
2022/08/08 06:10:58;;;;;;;5.25;4.80;;;;;;;25.41;53.48;94678.19;2612264;47;20156;-83
2022/08/08 06:13:28;;;;;;;8.02;3.95;;;;;;;24.88;52.21;94538.91;2614809;54;20149;-84
2022/08/08 06:16:08;;;;;;;;;;;;;;;;;;;;;
2022/08/08 06:18:38;;;;;;;5.03;4.53;;;;;;;25.50;50.76;94595.34;2616697;54;20168;-83
2022/08/08 06:21:11;;;;;;;4.80;3.78;;;;;;;26.40;48.85;94669.09;2617991;54;20160;-81
2022/08/08 06:23:39;;;;;;;3.53;3.33;;;;;;;25.65;48.76;94555.09;2617315;47;20159;-82
2022/08/08 06:26:19;;;;;;;4.97;4.15;;;;;;;26.73;48.32;94685.59;2616702;47;20175;-85
2022/08/08 06:28:54;;;;;;;6.88;4.00;;;;;;;26.31;49.15;94664.31;2616483;54;20659;-85
2022/08/08 06:31:24;;;;;;;7.80;3.88;;;;;;;25.57;51.18;94694.47;2618266;47;20202;-86
2022/08/08 06:34:00;;;;;;;5.35;4.40;;;;;;;25.97;48.94;94674.66;2617685;54;20260;-82
2022/08/08 06:36:37;;;;;;;6.65;4.45;;;;;;;25.86;48.16;94604.56;2617573;47;20152;-83
2022/08/08 06:39:08;;;;;;;5.53;3.80;;;;;;;26.63;47.40;94677.91;2617736;52;20255;-83
2022/08/08 06:41:43;;;;;;;4.10;3.80;;;;;;;26.64;46.75;94614.72;2617683;54;20160;-82
2022/08/08 06:44:13;;;;;;;3.85;3.35;;;;;;;27.02;46.17;94604.81;2617322;47;20156;-82
2022/08/08 06:46:45;;;;;;;4.15;3.60;;;;;;;27.07;45.71;94614.81;2617752;46;20172;-82
2022/08/08 06:49:14;;;;;;;3.40;3.10;;;;;;;27.77;45.28;94688.94;2617394;54;20165;-82
2022/08/08 06:51:45;;;;;;;4.15;3.75;;;;;;;28.19;45.04;94718.81;2617587;54;20165;-83
2022/08/08 06:54:14;;;;;;;3.88;3.60;;;;;;;27.08;45.25;94604.63;2617669;54;20168;-82
2022/08/08 06:56:45;;;;;;;4.20;3.28;;;;;;;27.76;44.60;94688.22;2617580;54;20165;-82
2022/08/08 06:59:13;;;;;;;3.65;3.35;;;;;;;27.99;43.73;94685.28;2618371;39;20529;-83
2022/08/08 07:02:02;;;;;;;3.08;2.88;;;;;;;28.23;42.91;94678.63;2617434;47;20284;-81
2022/08/08 07:04:39;;;;;;;2.83;2.63;;;;;;;27.28;43.55;94617.09;2617734;54;20178;-85
2022/08/08 07:07:18;;;;;;;4.75;4.03;;;;;;;28.10;43.75;94724.19;2617504;47;20161;-81
2022/08/08 07:10:03;;;;;;;3.10;2.90;;;;;;;28.09;42.96;94670.38;2617240;54;20152;-83
2022/08/08 07:12:45;;;;;;;3.53;3.22;;;;;;;28.05;43.21;94637.75;2618374;47;20207;-89
2022/08/08 07:15:15;;;;;;;6.47;3.60;;;;;;;27.20;42.27;94522.09;2617512;54;20171;-83
2022/08/08 07:17:48;;;;;;;6.82;5.38;;;;;;;28.83;42.38;94709.28;2616841;47;20648;-83
2022/08/08 07:20:21;;;;;;;4.93;3.72;;;;;;;28.41;42.42;94723.16;2617666;47;20145;-80
2022/08/08 07:23:03;;;;;;;6.05;3.35;;;;;;;28.30;42.58;94706.03;2617527;54;20667;-81
2022/08/08 07:25:33;;;;;;;3.55;3.35;;;;;;;28.19;42.14;94632.16;2617241;47;20152;-80
2022/08/08 07:28:08;;;;;;;4.70;3.53;;;;;;;28.06;42.78;94657.34;2617362;54;20148;-80
2022/08/08 07:30:37;;;;;;;3.13;2.80;;;;;;;28.67;40.91;94687.25;2617428;54;20163;-84
2022/08/08 07:33:07;;;;;;;2.97;2.60;;;;;;;29.23;41.01;94733.97;2617444;54;20152;-83
2022/08/08 07:35:38;;;;;;;4.65;3.40;;;;;;;28.39;40.59;94589.25;2617442;47;20657;-83
2022/08/08 07:38:12;;;;;;;3.25;2.45;;;;;;;28.27;40.17;94727.28;2616808;31;20610;-82
2022/08/08 07:40:43;;;;;;;2.67;2.47;;;;;;;27.52;40.65;94625.72;2616053;47;20807;-86
2022/08/08 07:43:14;;;;;;;3.08;2.88;;;;;;;28.55;40.58;94717.53;2616539;54;20164;-82
2022/08/08 07:45:45;;;;;;;3.47;3.08;;;;;;;28.22;41.00;94629.91;2614401;54;20594;-83
2022/08/08 07:48:14;;;;;;;5.45;2.47;;;;;;;28.69;39.09;94602.66;2618298;47;20157;-84
2022/08/08 07:50:44;;;;;;;3.25;2.72;;;;;;;29.17;38.67;94628.50;2618807;39;20584;-83
2022/08/08 07:53:21;;;;;;;3.30;2.88;;;;;;;29.58;37.17;94683.75;2616541;47;20678;-81
2022/08/08 07:55:53;;;;;;;3.17;2.88;;;;;;;29.08;38.70;94686.44;2618298;54;20180;-84
2022/08/08 07:58:32;;;;;;;3.20;2.80;;;;;;;29.32;37.45;94691.31;2618284;47;20168;-85
2022/08/08 08:01:06;;;;;;;2.78;2.58;;;;;;;29.33;37.25;94654.81;2617218;47;20203;-80
2022/08/08 08:03:38;;;;;;;2.08;1.98;;;;;;;30.01;35.47;94676.88;2614952;47;20151;-84
2022/08/08 08:06:13;;;;;;;2.40;2.20;;;;;;;30.45;34.99;94708.59;2613540;47;20690;-80
2022/08/08 08:08:54;;;;;;;2.50;2.40;;;;;;;27.91;36.25;94516.72;2616037;54;20921;-82
2022/08/08 08:11:35;;;;;;;1.90;1.80;;;;;;;27.46;36.05;94465.25;2616046;47;20145;-81
2022/08/08 08:14:07;;;;;;;2.08;1.98;;;;;;;28.54;35.67;94564.63;2617155;47;20156;-83
2022/08/08 08:16:37;;;;;;;2.15;1.95;;;;;;;29.79;35.40;94706.28;2617720;47;20153;-81
2022/08/08 08:19:12;;;;;;;4.22;2.13;;;;;;;29.65;34.63;94652.81;2617668;54;20149;-83
2022/08/08 08:21:42;;;;;;;1.98;1.88;;;;;;;30.61;33.81;94707.19;2617849;54;20647;-83
2022/08/08 08:24:14;;;;;;;2.97;2.78;;;;;;;29.41;34.69;94685.91;2617910;54;20164;-82
2022/08/08 08:26:43;;;;;;;1.58;1.48;;;;;;;29.76;34.46;94685.22;2617933;54;20159;-83
2022/08/08 08:29:12;;;;;;;1.70;1.60;;;;;;;30.50;33.73;94692.28;2617768;54;20152;-83
2022/08/08 08:34:44;;;;;;;1.88;1.77;;;;;;;29.85;33.51;94668.06;2617477;47;20148;-84
2022/08/08 08:37:13;;;;;;;1.90;1.73;;;;;;;29.65;33.00;94649.91;2616806;47;20170;-84
2022/08/08 08:39:44;;;;;;;2.22;2.13;;;;;;;29.47;33.80;94659.41;2616655;54;20206;-85
2022/08/08 08:42:29;;;;;;;1.95;1.85;;;;;;;28.79;33.85;94631.44;2621388;47;20192;-91
2022/08/08 08:45:00;;;;;;;2.00;1.80;;;;;;;27.87;33.47;94435.41;2618004;47;20149;-82
2022/08/08 08:47:30;;;;;;;2.10;2.00;;;;;;;30.16;32.68;94641.94;2618480;39;20517;-81
2022/08/08 08:49:59;;;;;;;1.58;1.48;;;;;;;30.39;32.14;94673.78;2617551;47;20663;-83
2022/08/08 08:52:28;;;;;;;3.13;2.10;;;;;;;30.40;32.23;94690.50;2618131;39;20667;-81
2022/08/08 08:55:02;;;;;;;1.75;1.65;;;;;;;29.27;32.08;94515.03;2617055;47;20160;-84
2022/08/08 08:57:34;;;;;;;2.13;2.03;;;;;;;29.60;33.04;94613.63;2619008;54;20164;-89
2022/08/08 09:00:03;;;;;;;1.60;1.48;;;;;;;30.23;33.17;94625.53;2621288;54;20145;-85
2022/08/08 09:02:36;;;;;;;2.38;2.28;;;;;;;30.49;31.71;94681.38;2620125;46;20188;-88
2022/08/08 09:05:40;;;;;;;1.95;1.58;;;;;;;30.27;31.81;94627.56;2616695;47;20156;-87
2022/08/08 09:08:10;;;;;;;1.67;1.58;;;;;;;29.63;30.02;94538.38;2616567;46;20154;-87
2022/08/08 09:10:42;;;;;;;1.48;1.35;;;;;;;30.97;29.06;94669.72;2618908;47;20164;-89
2022/08/08 09:13:12;;;;;;;1.92;1.40;;;;;;;31.31;29.94;94671.03;2618235;47;20160;-87
2022/08/08 09:15:41;;;;;;;2.75;1.98;;;;;;;31.01;30.26;94631.53;2619333;47;20168;-82
2022/08/08 09:18:11;;;;;;;1.60;1.50;;;;;;;30.31;30.84;94674.84;2616904;47;20157;-84
2022/08/08 09:20:40;;;;;;;1.27;1.27;;;;;;;30.60;30.58;94671.41;2618634;47;20264;-83
2022/08/08 09:23:10;;;;;;;1.67;1.65;;;;;;;30.80;30.79;94625.91;2617400;47;20207;-85
2022/08/08 09:25:49;;;;;;;2.42;1.88;;;;;;;28.80;32.15;94425.22;2619248;46;20173;-88
2022/08/08 09:28:19;;;;;;;1.85;1.75;;;;;;;28.26;32.76;94449.91;2625024;47;20164;-89
2022/08/08 09:30:53;;;;;;;1.45;1.42;;;;;;;28.60;32.56;94519.94;2620603;47;20714;-86
2022/08/08 09:33:24;;;;;;;2.33;2.13;;;;;;;28.59;33.30;94457.34;2618117;54;20164;-87
2022/08/08 09:35:54;;;;;;;2.17;1.88;;;;;;;29.58;33.23;94639.25;2619188;47;20161;-89
2022/08/08 09:38:35;;;;;;;1.63;1.40;;;;;;;28.71;31.39;94429.91;2620019;47;20149;-89
2022/08/08 09:41:08;;;;;;;2.10;2.00;;;;;;;30.19;33.01;94637.41;2619589;47;20694;-85
2022/08/08 09:43:50;;;;;;;1.92;1.83;;;;;;;29.94;32.65;94634.09;2618378;39;20331;-80
2022/08/08 09:46:23;;;;;;;2.72;1.60;;;;;;;30.27;30.48;94642.88;2614892;54;20149;-84
2022/08/08 09:48:53;;;;;;;1.02;1.02;;;;;;;30.15;30.68;94601.81;2617526;54;20156;-78
2022/08/08 09:51:27;;;;;;;1.60;1.50;;;;;;;29.82;29.77;94605.41;2617476;47;20354;-83
2022/08/08 09:54:01;;;;;;;2.50;2.30;;;;;;;29.67;31.27;94628.66;2617658;47;20156;-81
2022/08/08 09:56:37;;;;;;;1.63;1.52;;;;;;;29.58;30.58;94575.06;2617586;54;20148;-82
2022/08/08 09:59:08;;;;;;;1.30;1.30;;;;;;;30.28;29.34;94562.50;2615073;39;20608;-82
2022/08/08 10:01:39;;;;;;;1.63;1.52;;;;;;;30.01;30.05;94516.25;2617213;54;20149;-83
2022/08/08 10:04:16;;;;;;;2.22;1.92;;;;;;;29.10;31.09;94513.63;2617688;47;20153;-81
2022/08/08 10:06:53;;;;;;;2.00;1.90;;;;;;;29.60;31.54;94583.72;2617049;54;20145;-84
2022/08/08 10:09:32;;;;;;;1.75;1.65;;;;;;;28.84;31.26;94541.63;2614997;54;20156;-81
2022/08/08 10:12:32;;;;;;;1.63;1.55;;;;;;;28.32;32.44;94497.75;2617747;54;20157;-86
2022/08/08 10:15:32;;;;;;;2.13;1.75;;;;;;;30.44;31.63;94598.34;2617956;47;20144;-85
2022/08/08 10:18:01;;;;;;;2.20;1.48;;;;;;;28.97;31.46;94466.75;2617924;54;20259;-84
2022/08/08 10:20:30;;;;;;;1.48;1.45;;;;;;;30.02;30.11;94491.41;2616390;47;20160;-84
2022/08/08 10:23:03;;;;;;;1.63;1.48;;;;;;;30.60;29.83;94571.31;2616459;46;20173;-84
2022/08/08 10:25:41;;;;;;;1.30;1.30;;;;;;;30.62;29.70;94591.66;2616767;54;20159;-86
2022/08/08 10:28:17;;;;;;;1.10;1.10;;;;;;;29.60;28.01;94411.56;2617841;47;20171;-86
2022/08/08 10:30:56;;;;;;;1.10;1.10;;;;;;;29.88;28.70;94459.19;2618911;47;20206;-84
2022/08/08 10:33:49;;;;;;;1.33;1.30;;;;;;;29.24;28.71;94346.78;2617866;47;20709;-90
2022/08/08 10:36:32;;;;;;;2.00;1.60;;;;;;;31.20;28.08;94584.56;2618124;54;20236;-87
2022/08/08 10:39:14;;;;;;;1.08;1.08;;;;;;;30.31;28.85;94520.00;2621478;54;20137;-82
